createdAt,value
2018-02-16T00:00:45.139Z,1016.32
2018-02-16T00:01:53.817Z,1016.3
2018-02-16T00:03:02.761Z,1016.29
2018-02-16T00:04:11.971Z,1016.3
2018-02-16T00:05:21.243Z,1016.34
2018-02-16T00:06:29.864Z,1016.31
2018-02-16T00:07:38.541Z,1016.3
2018-02-16T00:08:47.752Z,1016.32
2018-02-16T00:09:56.426Z,1016.38
2018-02-16T00:11:05.369Z,1016.33
2018-02-16T00:12:14.318Z,1016.39
2018-02-16T00:13:22.996Z,1016.38
2018-02-16T00:14:31.673Z,1016.35
2018-02-16T00:15:41.148Z,1016.41
2018-02-16T00:16:49.830Z,1016.43
2018-02-16T00:17:58.780Z,1016.45
2018-02-16T00:19:07.989Z,1016.52
2018-02-16T00:20:16.665Z,1016.51
2018-02-16T00:21:25.872Z,1016.52
2018-02-16T00:22:34.821Z,1016.54
2018-02-16T00:23:44.026Z,1016.54
2018-02-16T00:24:52.970Z,1016.58
2018-02-16T00:26:01.646Z,1016.49
2018-02-16T00:27:10.590Z,1016.51
2018-02-16T00:28:19.266Z,1016.57
2018-02-16T00:29:27.942Z,1016.61
2018-02-16T00:30:36.888Z,1016.61
2018-02-16T00:31:45.564Z,1016.62
2018-02-16T00:32:54.769Z,1016.54
2018-02-16T00:34:03.720Z,1016.51
2018-02-16T00:35:12.935Z,1016.62
2018-02-16T00:36:21.877Z,1016.58
2018-02-16T00:37:30.814Z,1016.61
2018-02-16T00:38:39.494Z,1016.57
2018-02-16T00:39:48.712Z,1016.57
2018-02-16T00:40:57.654Z,1016.6
2018-02-16T00:42:06.600Z,1016.6
2018-02-16T00:43:15.275Z,1016.62
2018-02-16T00:44:23.952Z,1016.59
2018-02-16T00:45:33.429Z,1016.65
2018-02-16T00:46:42.371Z,1016.69
2018-02-16T00:47:51.045Z,1016.67
2018-02-16T00:48:59.988Z,1016.64
2018-02-16T00:50:08.931Z,1016.63
2018-02-16T00:51:17.608Z,1016.66
2018-02-16T00:52:26.561Z,1016.66
2018-02-16T00:53:35.239Z,1016.71
2018-02-16T00:54:43.917Z,1016.76
2018-02-16T00:55:52.862Z,1016.72
2018-02-16T00:57:01.537Z,1016.7
2018-02-16T00:58:10.214Z,1016.71
2018-02-16T00:59:18.896Z,1016.77
2018-02-16T01:00:27.578Z,1016.78
2018-02-16T01:01:36.530Z,1016.78
2018-02-16T01:02:45.475Z,1016.77
2018-02-16T01:03:54.421Z,1016.82
2018-02-16T01:05:03.638Z,1016.84
2018-02-16T01:06:12.582Z,1016.86
2018-02-16T01:07:21.260Z,1016.9
2018-02-16T01:08:30.210Z,1016.9
2018-02-16T01:09:39.420Z,1016.91
2018-02-16T01:10:48.099Z,1016.93
2018-02-16T01:11:57.042Z,1016.95
2018-02-16T01:13:05.718Z,1016.94
2018-02-16T01:14:14.392Z,1016.94
2018-02-16T01:15:23.338Z,1016.95
2018-02-16T01:16:32.016Z,1017.01
2018-02-16T01:17:40.698Z,1017.01
2018-02-16T01:18:49.374Z,1017.02
2018-02-16T01:19:58.053Z,1017.02
2018-02-16T01:21:06.730Z,1017.04
2018-02-16T01:22:15.409Z,1017.09
2018-02-16T01:23:24.349Z,1017.08
2018-02-16T01:24:33.293Z,1017.13
2018-02-16T01:25:42.504Z,1017.14
2018-02-16T01:26:51.178Z,1017.1
2018-02-16T01:27:59.858Z,1017.11
2018-02-16T01:29:08.539Z,1017.15
2018-02-16T01:30:17.218Z,1017.13
2018-02-16T01:31:26.164Z,1017.17
2018-02-16T01:32:35.108Z,1017.15
2018-02-16T01:33:44.600Z,1017.16
2018-02-16T01:34:53.553Z,1017.13
2018-02-16T01:36:02.763Z,1017.09
2018-02-16T01:37:11.711Z,1017.13
2018-02-16T01:38:20.388Z,1017.13
2018-02-16T01:39:29.858Z,1017.15
2018-02-16T01:40:38.804Z,1017.15
2018-02-16T01:41:48.020Z,1017.17
2018-02-16T01:42:56.964Z,1017.2
2018-02-16T01:44:05.642Z,1017.21
2018-02-16T01:45:14.583Z,1017.27
2018-02-16T01:46:23.260Z,1017.3
2018-02-16T01:47:32.199Z,1017.27
2018-02-16T01:48:41.146Z,1017.27
2018-02-16T01:49:49.819Z,1017.3
2018-02-16T01:50:58.500Z,1017.33
2018-02-16T01:52:07.479Z,1017.3
2018-02-16T01:53:16.122Z,1017.34
2018-02-16T01:54:25.063Z,1017.34
2018-02-16T01:55:34.006Z,1017.35
2018-02-16T01:56:43.209Z,1017.35
2018-02-16T01:57:52.157Z,1017.37
2018-02-16T01:59:00.835Z,1017.38
2018-02-16T02:00:09.507Z,1017.38
2018-02-16T02:01:18.981Z,1017.34
2018-02-16T02:02:27.660Z,1017.4
2018-02-16T02:03:36.870Z,1017.4
2018-02-16T02:04:46.078Z,1017.43
2018-02-16T02:05:55.024Z,1017.44
2018-02-16T02:07:03.701Z,1017.46
2018-02-16T02:08:12.912Z,1017.49
2018-02-16T02:09:21.593Z,1017.45
2018-02-16T02:10:30.270Z,1017.49
2018-02-16T02:11:38.949Z,1017.46
2018-02-16T02:12:47.888Z,1017.49
2018-02-16T02:13:57.110Z,1017.5
2018-02-16T02:15:06.586Z,1017.5
2018-02-16T02:16:15.269Z,1017.53
2018-02-16T02:17:24.221Z,1017.49
2018-02-16T02:18:33.160Z,1017.47
2018-02-16T02:19:42.105Z,1017.5
2018-02-16T02:20:51.318Z,1017.46
2018-02-16T02:22:00.527Z,1017.48
2018-02-16T02:23:09.205Z,1017.48
2018-02-16T02:24:18.415Z,1017.48
2018-02-16T02:25:27.357Z,1017.48
2018-02-16T02:26:36.034Z,1017.53
2018-02-16T02:27:44.708Z,1017.53
2018-02-16T02:28:53.385Z,1017.53
2018-02-16T02:30:02.595Z,1017.54
2018-02-16T02:31:11.814Z,1017.56
2018-02-16T02:32:20.489Z,1017.6
2018-02-16T02:33:29.433Z,1017.6
2018-02-16T02:34:38.914Z,1017.65
2018-02-16T02:35:48.126Z,1017.67
2018-02-16T02:36:57.072Z,1017.65
2018-02-16T02:38:05.758Z,1017.67
2018-02-16T02:39:14.979Z,1017.69
2018-02-16T02:40:23.927Z,1017.68
2018-02-16T02:41:33.419Z,1017.67
2018-02-16T02:42:42.099Z,1017.71
2018-02-16T02:43:51.578Z,1017.73
2018-02-16T02:45:00.782Z,1017.68
2018-02-16T02:46:09.996Z,1017.71
2018-02-16T02:47:18.670Z,1017.69
2018-02-16T02:48:28.145Z,1017.71
2018-02-16T02:49:37.618Z,1017.65
2018-02-16T02:50:46.835Z,1017.68
2018-02-16T02:51:55.779Z,1017.69
2018-02-16T02:53:04.460Z,1017.7
2018-02-16T02:54:13.406Z,1017.71
2018-02-16T02:55:22.613Z,1017.72
2018-02-16T02:56:32.092Z,1017.75
2018-02-16T02:57:41.571Z,1017.71
2018-02-16T02:58:50.516Z,1017.78
2018-02-16T02:59:59.458Z,1017.79
2018-02-16T03:01:08.664Z,1017.8
2018-02-16T03:02:17.880Z,1017.79
2018-02-16T03:03:27.885Z,1017.76
2018-02-16T03:04:37.360Z,1017.76
2018-02-16T03:05:46.579Z,1017.79
2018-02-16T03:06:55.786Z,1017.82
2018-02-16T03:08:04.473Z,1017.81
2018-02-16T03:09:13.685Z,1017.83
2018-02-16T03:10:22.363Z,1017.84
2018-02-16T03:11:31.307Z,1017.85
2018-02-16T03:12:40.245Z,1017.87
2018-02-16T03:13:48.925Z,1017.88
2018-02-16T03:14:57.872Z,1017.89
2018-02-16T03:16:06.849Z,1017.92
2018-02-16T03:17:15.796Z,1017.94
2018-02-16T03:18:24.787Z,1017.92
2018-02-16T03:19:33.462Z,1017.98
2018-02-16T03:20:42.405Z,1017.99
2018-02-16T03:21:51.348Z,1018
2018-02-16T03:23:00.292Z,1017.97
2018-02-16T03:24:08.968Z,1017.99
2018-02-16T03:25:17.644Z,1017.93
2018-02-16T03:26:26.585Z,1017.98
2018-02-16T03:27:35.526Z,1017.95
2018-02-16T03:28:44.471Z,1017.97
2018-02-16T03:29:53.148Z,1017.97
2018-02-16T03:31:02.110Z,1017.95
2018-02-16T03:32:11.326Z,1018.01
2018-02-16T03:33:20.005Z,1017.99
2018-02-16T03:34:29.219Z,1017.96
2018-02-16T03:35:38.166Z,1017.97
2018-02-16T03:36:46.845Z,1018
2018-02-16T03:37:55.788Z,1018.04
2018-02-16T03:39:04.998Z,1018.03
2018-02-16T03:40:13.943Z,1018.02
2018-02-16T03:41:22.619Z,1018.07
2018-02-16T03:42:31.300Z,1018.07
2018-02-16T03:43:39.973Z,1018.08
2018-02-16T03:44:48.650Z,1018.09
2018-02-16T03:45:57.327Z,1018.16
2018-02-16T03:47:06.273Z,1018.13
2018-02-16T03:48:15.221Z,1018.16
2018-02-16T03:49:24.165Z,1018.19
2018-02-16T03:50:32.841Z,1018.18
2018-02-16T03:51:41.788Z,1018.19
2018-02-16T03:52:50.735Z,1018.2
2018-02-16T03:53:59.411Z,1018.18
2018-02-16T03:55:08.357Z,1018.27
2018-02-16T03:56:17.307Z,1018.24
2018-02-16T03:57:26.260Z,1018.29
2018-02-16T03:58:35.481Z,1018.32
2018-02-16T03:59:44.710Z,1018.32
2018-02-16T04:00:54.201Z,1018.33
2018-02-16T04:02:02.889Z,1018.32
2018-02-16T04:03:11.576Z,1018.38
2018-02-16T04:04:20.529Z,1018.38
2018-02-16T04:05:29.480Z,1018.37
2018-02-16T04:06:38.701Z,1018.38
2018-02-16T04:07:47.651Z,1018.38
2018-02-16T04:08:56.608Z,1018.4
2018-02-16T04:10:05.827Z,1018.48
2018-02-16T04:11:14.780Z,1018.49
2018-02-16T04:12:23.465Z,1018.48
2018-02-16T04:13:32.153Z,1018.5
2018-02-16T04:14:40.839Z,1018.49
2018-02-16T04:15:49.792Z,1018.46
2018-02-16T04:16:58.751Z,1018.53
2018-02-16T04:18:07.705Z,1018.55
2018-02-16T04:19:16.924Z,1018.55
2018-02-16T04:20:25.878Z,1018.58
2018-02-16T04:21:35.100Z,1018.61
2018-02-16T04:22:43.789Z,1018.62
2018-02-16T04:23:52.475Z,1018.68
2018-02-16T04:25:01.429Z,1018.64
2018-02-16T04:26:10.118Z,1018.65
2018-02-16T04:27:19.071Z,1018.65
2018-02-16T04:28:27.760Z,1018.7
2018-02-16T04:29:36.712Z,1018.71
2018-02-16T04:30:45.666Z,1018.71
2018-02-16T04:31:54.621Z,1018.7
2018-02-16T04:33:03.305Z,1018.77
2018-02-16T04:34:12.256Z,1018.79
2018-02-16T04:35:21.474Z,1018.83
2018-02-16T04:36:30.428Z,1018.85
2018-02-16T04:37:39.383Z,1018.86
2018-02-16T04:38:48.339Z,1018.86
2018-02-16T04:39:57.560Z,1018.89
2018-02-16T04:41:06.247Z,1018.86
2018-02-16T04:42:14.933Z,1018.89
2018-02-16T04:43:23.891Z,1018.88
2018-02-16T04:44:33.176Z,1018.89
2018-02-16T04:45:42.128Z,1018.91
2018-02-16T04:46:51.349Z,1018.95
2018-02-16T04:48:00.569Z,1018.94
2018-02-16T04:49:09.519Z,1018.99
2018-02-16T04:50:18.204Z,1018.98
2018-02-16T04:51:26.889Z,1019.03
2018-02-16T04:52:36.110Z,1019.04
2018-02-16T04:53:45.334Z,1019.06
2018-02-16T04:54:54.557Z,1019
2018-02-16T04:56:03.512Z,1019.05
2018-02-16T04:57:12.467Z,1019.02
2018-02-16T04:58:21.420Z,1019.01
2018-02-16T04:59:30.104Z,1019.02
2018-02-16T05:00:39.858Z,1019.02
2018-02-16T05:01:49.073Z,1019.04
2018-02-16T05:02:57.765Z,1019.06
2018-02-16T05:04:06.708Z,1019.07
2018-02-16T05:05:15.397Z,1019.07
2018-02-16T05:06:24.636Z,1019.09
2018-02-16T05:07:33.591Z,1019.09
2018-02-16T05:08:42.282Z,1019.08
2018-02-16T05:09:51.231Z,1019.13
2018-02-16T05:11:00.487Z,1019.15
2018-02-16T05:12:09.167Z,1019.15
2018-02-16T05:13:18.122Z,1019.15
2018-02-16T05:14:26.820Z,1019.18
2018-02-16T05:15:36.039Z,1019.21
2018-02-16T05:16:45.259Z,1019.26
2018-02-16T05:17:54.477Z,1019.26
2018-02-16T05:19:03.425Z,1019.3
2018-02-16T05:20:12.376Z,1019.31
2018-02-16T05:21:21.060Z,1019.31
2018-02-16T05:22:30.021Z,1019.32
2018-02-16T05:23:38.708Z,1019.35
2018-02-16T05:24:47.928Z,1019.36
2018-02-16T05:25:57.155Z,1019.4
2018-02-16T05:27:05.843Z,1019.43
2018-02-16T05:28:14.530Z,1019.4
2018-02-16T05:29:23.755Z,1019.41
2018-02-16T05:30:32.707Z,1019.41
2018-02-16T05:31:41.396Z,1019.41
2018-02-16T05:32:50.082Z,1019.41
2018-02-16T05:33:59.035Z,1019.43
2018-02-16T05:35:07.992Z,1019.41
2018-02-16T05:36:16.684Z,1019.39
2018-02-16T05:37:25.366Z,1019.46
2018-02-16T05:38:34.849Z,1019.48
2018-02-16T05:39:43.536Z,1019.46
2018-02-16T05:40:52.492Z,1019.54
2018-02-16T05:42:01.450Z,1019.54
2018-02-16T05:43:10.673Z,1019.54
2018-02-16T05:44:19.626Z,1019.54
2018-02-16T05:45:28.312Z,1019.53
2018-02-16T05:46:37.802Z,1019.6
2018-02-16T05:47:46.486Z,1019.64
2018-02-16T05:48:55.978Z,1019.62
2018-02-16T05:50:05.733Z,1019.63
2018-02-16T05:51:14.954Z,1019.68
2018-02-16T05:52:23.905Z,1019.71
2018-02-16T05:53:33.123Z,1019.72
2018-02-16T05:54:42.085Z,1019.77
2018-02-16T05:55:51.572Z,1019.79
2018-02-16T05:57:00.522Z,1019.78
2018-02-16T05:58:09.481Z,1019.81
2018-02-16T05:59:18.167Z,1019.82
2018-02-16T06:00:26.856Z,1019.82
2018-02-16T06:01:35.806Z,1019.86
2018-02-16T06:02:45.026Z,1019.87
2018-02-16T06:03:53.711Z,1019.87
2018-02-16T06:05:02.713Z,1019.87
2018-02-16T06:06:12.202Z,1019.84
2018-02-16T06:07:21.422Z,1019.9
2018-02-16T06:08:30.190Z,1019.92
2018-02-16T06:09:38.880Z,1019.93
2018-02-16T06:10:48.100Z,1019.93
2018-02-16T06:11:57.325Z,1019.94
2018-02-16T06:13:06.013Z,1019.96
2018-02-16T06:14:14.963Z,1019.98
2018-02-16T06:15:23.654Z,1019.96
2018-02-16T06:16:32.606Z,1019.97
2018-02-16T06:17:41.561Z,1019.98
2018-02-16T06:18:50.246Z,1019.99
2018-02-16T06:19:59.468Z,1020.01
2018-02-16T06:21:08.691Z,1020.03
2018-02-16T06:22:17.376Z,1020.05
2018-02-16T06:23:26.068Z,1020.09
2018-02-16T06:24:34.760Z,1020.05
2018-02-16T06:25:43.448Z,1020.12
2018-02-16T06:26:52.420Z,1020.15
2018-02-16T06:28:01.102Z,1020.11
2018-02-16T06:29:10.058Z,1020.08
2018-02-16T06:30:18.748Z,1020.12
2018-02-16T06:31:27.707Z,1020.1
2018-02-16T06:32:36.925Z,1020.16
2018-02-16T06:33:45.882Z,1020.17
2018-02-16T06:34:54.568Z,1020.21
2018-02-16T06:36:03.784Z,1020.22
2018-02-16T06:37:12.741Z,1020.25
2018-02-16T06:38:21.423Z,1020.24
2018-02-16T06:39:30.641Z,1020.24
2018-02-16T06:40:40.122Z,1020.26
2018-02-16T06:41:48.808Z,1020.27
2018-02-16T06:42:57.762Z,1020.26
2018-02-16T06:44:06.715Z,1020.27
2018-02-16T06:45:15.937Z,1020.25
2018-02-16T06:46:25.427Z,1020.27
2018-02-16T06:47:34.385Z,1020.27
2018-02-16T06:48:43.341Z,1020.29
2018-02-16T06:49:52.828Z,1020.31
2018-02-16T06:51:02.048Z,1020.34
2018-02-16T06:52:11.004Z,1020.35
2018-02-16T06:53:19.964Z,1020.39
2018-02-16T06:54:28.652Z,1020.43
2018-02-16T06:55:37.341Z,1020.46
2018-02-16T06:56:46.030Z,1020.43
2018-02-16T06:57:54.716Z,1020.48
2018-02-16T06:59:03.673Z,1020.52
2018-02-16T07:00:12.623Z,1020.54
2018-02-16T07:01:21.579Z,1020.6
2018-02-16T07:02:30.264Z,1020.57
2018-02-16T07:03:38.949Z,1020.61
2018-02-16T07:04:47.901Z,1020.58
2018-02-16T07:05:56.858Z,1020.6
2018-02-16T07:07:05.810Z,1020.63
2018-02-16T07:08:15.034Z,1020.64
2018-02-16T07:09:23.991Z,1020.65
2018-02-16T07:10:32.945Z,1020.68
2018-02-16T07:11:42.168Z,1020.68
2018-02-16T07:12:51.387Z,1020.69
2018-02-16T07:14:00.074Z,1020.71
2018-02-16T07:15:08.758Z,1020.7
2018-02-16T07:16:17.444Z,1020.72
2018-02-16T07:17:26.439Z,1020.73
2018-02-16T07:18:35.396Z,1020.77
2018-02-16T07:19:44.618Z,1020.76
2018-02-16T07:20:53.568Z,1020.8
2018-02-16T07:22:02.529Z,1020.8
2018-02-16T07:23:11.750Z,1020.84
2018-02-16T07:24:20.438Z,1020.83
2018-02-16T07:25:29.389Z,1020.86
2018-02-16T07:26:38.075Z,1020.88
2018-02-16T07:27:47.305Z,1020.87
2018-02-16T07:28:56.256Z,1020.93
2018-02-16T07:30:04.942Z,1020.88
2018-02-16T07:31:13.895Z,1020.9
2018-02-16T07:32:22.580Z,1020.96
2018-02-16T07:33:31.800Z,1020.96
2018-02-16T07:34:40.755Z,1020.97
2018-02-16T07:35:49.439Z,1020.96
2018-02-16T07:36:58.125Z,1020.96
2018-02-16T07:38:06.813Z,1020.96
2018-02-16T07:39:15.499Z,1020.97
2018-02-16T07:40:24.719Z,1020.99
2018-02-16T07:41:33.942Z,1021.04
2018-02-16T07:42:43.169Z,1020.99
2018-02-16T07:43:52.127Z,1020.98
2018-02-16T07:45:00.814Z,1021.04
2018-02-16T07:46:09.770Z,1021.03
2018-02-16T07:47:18.723Z,1021.04
2018-02-16T07:48:27.409Z,1021.07
2018-02-16T07:49:36.630Z,1021.06
2018-02-16T07:50:58.325Z,1021.06
2018-02-16T07:52:07.279Z,1021.09
2018-02-16T07:53:16.502Z,1021.12
2018-02-16T07:54:25.721Z,1021.09
2018-02-16T07:55:34.446Z,1021.12
2018-02-16T07:56:43.359Z,1021.12
2018-02-16T07:57:52.311Z,1021.13
2018-02-16T07:59:01.530Z,1021.18
2018-02-16T08:00:10.752Z,1021.22
2018-02-16T08:01:19.980Z,1021.22
2018-02-16T08:02:28.670Z,1021.21
2018-02-16T08:03:37.358Z,1021.21
2018-02-16T08:04:46.046Z,1021.26
2018-02-16T08:05:55.268Z,1021.26
2018-02-16T08:07:04.222Z,1021.26
2018-02-16T08:08:13.170Z,1021.25
2018-02-16T08:09:22.127Z,1021.28
2018-02-16T08:10:30.816Z,1021.3
2018-02-16T08:11:39.770Z,1021.29
2018-02-16T08:12:48.990Z,1021.32
2018-02-16T08:13:58.479Z,1021.37
2018-02-16T08:15:07.433Z,1021.37
2018-02-16T08:16:16.118Z,1021.35
2018-02-16T08:17:24.806Z,1021.37
2018-02-16T08:18:33.761Z,1021.39
2018-02-16T08:19:42.980Z,1021.41
2018-02-16T08:20:51.936Z,1021.42
2018-02-16T08:22:01.156Z,1021.45
2018-02-16T08:23:09.849Z,1021.47
2018-02-16T08:24:18.802Z,1021.45
2018-02-16T08:25:28.289Z,1021.49
2018-02-16T08:26:36.976Z,1021.48
2018-02-16T08:27:45.937Z,1021.57
2018-02-16T08:28:54.628Z,1021.58
2018-02-16T08:30:03.585Z,1021.59
2018-02-16T08:31:12.544Z,1021.58
2018-02-16T08:32:21.231Z,1021.59
2018-02-16T08:33:30.184Z,1021.63
2018-02-16T08:34:39.139Z,1021.68
2018-02-16T08:35:47.829Z,1021.65
2018-02-16T08:36:56.516Z,1021.66
2018-02-16T08:38:06.003Z,1021.69
2018-02-16T08:39:14.690Z,1021.68
2018-02-16T08:40:23.645Z,1021.69
2018-02-16T08:41:32.599Z,1021.74
2018-02-16T08:42:41.289Z,1021.73
2018-02-16T08:43:49.978Z,1021.75
2018-02-16T08:44:58.930Z,1021.74
2018-02-16T08:46:07.617Z,1021.8
2018-02-16T08:47:16.302Z,1021.79
2018-02-16T08:48:25.258Z,1021.83
2018-02-16T08:49:34.211Z,1021.85
2018-02-16T08:50:42.900Z,1021.86
2018-02-16T08:51:51.850Z,1021.86
2018-02-16T08:53:00.801Z,1021.87
2018-02-16T08:54:09.755Z,1021.89
2018-02-16T08:55:18.710Z,1021.86
2018-02-16T08:56:27.396Z,1021.91
2018-02-16T08:57:36.088Z,1021.99
2018-02-16T08:58:45.572Z,1021.96
2018-02-16T08:59:54.524Z,1021.97
2018-02-16T09:01:03.213Z,1021.98
2018-02-16T09:02:12.701Z,1022.05
2018-02-16T09:03:21.391Z,1022.05
2018-02-16T09:04:30.343Z,1022.07
2018-02-16T09:05:39.031Z,1022.08
2018-02-16T09:06:47.987Z,1022.12
2018-02-16T09:07:56.677Z,1022.06
2018-02-16T09:09:05.921Z,1022.1
2018-02-16T09:10:15.138Z,1022.18
2018-02-16T09:11:23.826Z,1022.23
2018-02-16T09:12:32.520Z,1022.21
2018-02-16T09:13:41.208Z,1022.26
2018-02-16T09:14:50.159Z,1022.25
2018-02-16T09:15:59.116Z,1022.3
2018-02-16T09:17:07.805Z,1022.33
2018-02-16T09:18:16.760Z,1022.34
2018-02-16T09:19:25.444Z,1022.36
2018-02-16T09:20:34.399Z,1022.37
2018-02-16T09:21:43.086Z,1022.37
2018-02-16T09:22:52.581Z,1022.37
2018-02-16T09:24:01.535Z,1022.35
2018-02-16T09:25:10.490Z,1022.39
2018-02-16T09:26:19.179Z,1022.38
2018-02-16T09:27:28.132Z,1022.4
2018-02-16T09:28:36.822Z,1022.46
2018-02-16T09:29:45.775Z,1022.48
2018-02-16T09:30:54.460Z,1022.45
2018-02-16T09:32:03.151Z,1022.48
2018-02-16T09:33:11.839Z,1022.47
2018-02-16T09:34:20.792Z,1022.52
2018-02-16T09:35:29.750Z,1022.53
2018-02-16T09:36:38.701Z,1022.55
2018-02-16T09:37:47.654Z,1022.58
2018-02-16T09:38:56.872Z,1022.59
2018-02-16T09:40:05.560Z,1022.65
2018-02-16T09:41:14.245Z,1022.6
2018-02-16T09:42:23.198Z,1022.59
2018-02-16T09:43:32.414Z,1022.65
2018-02-16T09:44:41.102Z,1022.68
2018-02-16T09:45:50.326Z,1022.63
2018-02-16T09:46:59.283Z,1022.66
2018-02-16T09:48:08.498Z,1022.71
2018-02-16T09:49:17.186Z,1022.71
2018-02-16T09:50:25.873Z,1022.77
2018-02-16T09:51:34.827Z,1022.72
2018-02-16T09:52:43.790Z,1022.77
2018-02-16T09:53:53.013Z,1022.69
2018-02-16T09:55:01.966Z,1022.73
2018-02-16T09:56:10.921Z,1022.74
2018-02-16T09:57:19.879Z,1022.78
2018-02-16T09:58:28.834Z,1022.85
2018-02-16T09:59:37.522Z,1022.76
2018-02-16T10:00:46.481Z,1022.75
2018-02-16T10:01:55.172Z,1022.8
2018-02-16T10:03:03.858Z,1022.8
2018-02-16T10:04:12.817Z,1022.87
2018-02-16T10:05:21.778Z,1022.86
2018-02-16T10:06:31.000Z,1022.88
2018-02-16T10:07:39.686Z,1022.86
2018-02-16T10:08:48.379Z,1022.87
2018-02-16T10:09:57.066Z,1022.9
2018-02-16T10:11:06.022Z,1022.93
2018-02-16T10:12:14.704Z,1022.92
2018-02-16T10:13:23.387Z,1022.94
2018-02-16T10:14:32.339Z,1022.95
2018-02-16T10:15:41.028Z,1022.96
2018-02-16T10:16:49.718Z,1023.01
2018-02-16T10:17:58.673Z,1022.96
2018-02-16T10:19:07.358Z,1023.02
2018-02-16T10:20:16.044Z,1023.05
2018-02-16T10:21:24.997Z,1023.08
2018-02-16T10:22:33.952Z,1023.12
2018-02-16T10:23:42.637Z,1023.15
2018-02-16T10:24:51.591Z,1023.16
2018-02-16T10:26:00.548Z,1023.22
2018-02-16T10:27:09.236Z,1023.19
2018-02-16T10:28:18.188Z,1023.22
2018-02-16T10:29:26.882Z,1023.24
2018-02-16T10:30:36.105Z,1023.28
2018-02-16T10:31:44.792Z,1023.27
2018-02-16T10:32:53.482Z,1023.29
2018-02-16T10:34:02.438Z,1023.36
2018-02-16T10:35:11.122Z,1023.35
2018-02-16T10:36:20.116Z,1023.41
2018-02-16T10:37:29.071Z,1023.41
2018-02-16T10:38:37.757Z,1023.39
2018-02-16T10:39:46.975Z,1023.47
2018-02-16T10:40:55.926Z,1023.49
2018-02-16T10:42:04.879Z,1023.52
2018-02-16T10:43:13.565Z,1023.51
2018-02-16T10:44:22.518Z,1023.52
2018-02-16T10:45:31.204Z,1023.58
2018-02-16T10:46:39.893Z,1023.62
2018-02-16T10:47:49.393Z,1023.58
2018-02-16T10:48:58.078Z,1023.62
2018-02-16T10:50:07.297Z,1023.61
2018-02-16T10:51:15.983Z,1023.64
2018-02-16T10:52:25.201Z,1023.66
2018-02-16T10:53:34.160Z,1023.65
2018-02-16T10:54:42.848Z,1023.67
2018-02-16T10:55:51.536Z,1023.6
2018-02-16T10:57:00.755Z,1023.67
2018-02-16T10:58:09.979Z,1023.66
2018-02-16T10:59:18.667Z,1023.7
2018-02-16T11:00:27.619Z,1023.71
2018-02-16T11:01:36.573Z,1023.74
2018-02-16T11:02:45.804Z,1023.76
2018-02-16T11:03:55.029Z,1023.75
2018-02-16T11:05:03.984Z,1023.77
2018-02-16T11:06:12.950Z,1023.74
2018-02-16T11:07:21.641Z,1023.73
2018-02-16T11:08:30.330Z,1023.78
2018-02-16T11:09:39.018Z,1023.76
2018-02-16T11:10:47.969Z,1023.76
2018-02-16T11:11:56.653Z,1023.79
2018-02-16T11:13:05.607Z,1023.75
2018-02-16T11:14:14.566Z,1023.82
2018-02-16T11:15:23.522Z,1023.77
2018-02-16T11:16:32.206Z,1023.78
2018-02-16T11:17:40.896Z,1023.79
2018-02-16T11:18:50.112Z,1023.79
2018-02-16T11:19:59.070Z,1023.78
2018-02-16T11:21:08.294Z,1023.75
2018-02-16T11:22:17.247Z,1023.8
2018-02-16T11:23:25.934Z,1023.87
2018-02-16T11:24:34.621Z,1023.83
2018-02-16T11:25:43.579Z,1023.9
2018-02-16T11:26:52.538Z,1023.89
2018-02-16T11:28:01.226Z,1023.91
2018-02-16T11:29:09.910Z,1023.99
2018-02-16T11:30:18.862Z,1023.92
2018-02-16T11:31:27.548Z,1023.97
2018-02-16T11:32:36.503Z,1023.99
2018-02-16T11:33:45.457Z,1024
2018-02-16T11:34:54.951Z,1024.01
2018-02-16T11:36:04.170Z,1024.05
2018-02-16T11:37:13.126Z,1024.08
2018-02-16T11:38:22.346Z,1024.09
2018-02-16T11:39:31.619Z,1024.05
2018-02-16T11:40:40.532Z,1024.03
2018-02-16T11:41:49.484Z,1024.03
2018-02-16T11:42:58.173Z,1024.1
2018-02-16T11:44:07.130Z,1024.08
2018-02-16T11:45:15.818Z,1024.07
2018-02-16T11:46:24.772Z,1024.11
2018-02-16T11:47:33.462Z,1024.11
2018-02-16T11:48:42.148Z,1024.11
2018-02-16T11:49:51.112Z,1024.11
2018-02-16T11:51:00.062Z,1024.13
2018-02-16T11:52:09.281Z,1024.16
2018-02-16T11:53:18.768Z,1024.18
2018-02-16T11:54:27.452Z,1024.19
2018-02-16T11:55:36.402Z,1024.21
2018-02-16T11:56:45.368Z,1024.24
2018-02-16T11:57:54.596Z,1024.2
2018-02-16T11:59:03.547Z,1024.26
2018-02-16T12:00:12.236Z,1024.2
2018-02-16T12:01:20.926Z,1024.27
2018-02-16T12:02:30.410Z,1024.3
2018-02-16T12:03:39.633Z,1024.32
2018-02-16T12:04:48.589Z,1024.31
2018-02-16T12:05:58.074Z,1024.33
2018-02-16T12:07:07.032Z,1024.28
2018-02-16T12:08:15.988Z,1024.32
2018-02-16T12:09:24.945Z,1024.41
2018-02-16T12:10:34.435Z,1024.37
2018-02-16T12:11:43.655Z,1024.36
2018-02-16T12:12:52.873Z,1024.4
2018-02-16T12:14:02.098Z,1024.37
2018-02-16T12:15:11.586Z,1024.41
2018-02-16T12:16:20.277Z,1024.44
2018-02-16T12:17:28.964Z,1024.45
2018-02-16T12:18:37.656Z,1024.45
2018-02-16T12:19:46.613Z,1024.43
2018-02-16T12:20:55.301Z,1024.46
2018-02-16T12:22:04.064Z,1024.49
2018-02-16T12:23:13.053Z,1024.46
2018-02-16T12:24:22.009Z,1024.5
2018-02-16T12:25:31.232Z,1024.52
2018-02-16T12:26:40.183Z,1024.47
2018-02-16T12:27:48.868Z,1024.53
2018-02-16T12:28:57.556Z,1024.6
2018-02-16T12:30:06.241Z,1024.57
2018-02-16T12:31:14.926Z,1024.54
2018-02-16T12:32:24.149Z,1024.54
2018-02-16T12:33:33.111Z,1024.55
2018-02-16T12:34:42.337Z,1024.54
2018-02-16T12:35:51.297Z,1024.55
2018-02-16T12:36:59.980Z,1024.59
2018-02-16T12:38:08.937Z,1024.62
2018-02-16T12:39:17.624Z,1024.63
2018-02-16T12:40:26.849Z,1024.58
2018-02-16T12:41:35.816Z,1024.63
2018-02-16T12:42:44.774Z,1024.63
2018-02-16T12:43:54.256Z,1024.63
2018-02-16T12:45:03.211Z,1024.63
2018-02-16T12:46:12.434Z,1024.7
2018-02-16T12:47:21.390Z,1024.67
2018-02-16T12:48:30.343Z,1024.67
2018-02-16T12:49:39.561Z,1024.63
2018-02-16T12:50:48.323Z,1024.67
2018-02-16T12:51:57.014Z,1024.68
2018-02-16T12:53:05.962Z,1024.65
2018-02-16T12:54:14.652Z,1024.7
2018-02-16T12:55:23.338Z,1024.73
2018-02-16T12:56:32.029Z,1024.76
2018-02-16T12:57:40.982Z,1024.77
2018-02-16T12:58:49.672Z,1024.75
2018-02-16T12:59:58.627Z,1024.75
2018-02-16T13:01:07.315Z,1024.78
2018-02-16T13:02:16.003Z,1024.81
2018-02-16T13:03:25.226Z,1024.76
2018-02-16T13:04:33.915Z,1024.75
2018-02-16T13:05:42.871Z,1024.8
2018-02-16T13:06:52.098Z,1024.77
2018-02-16T13:08:00.788Z,1024.8
2018-02-16T13:09:09.477Z,1024.79
2018-02-16T13:10:18.433Z,1024.78
2018-02-16T13:11:27.391Z,1024.79
2018-02-16T13:12:36.353Z,1024.79
2018-02-16T13:13:45.845Z,1024.79
2018-02-16T13:14:54.531Z,1024.8
2018-02-16T13:16:03.221Z,1024.77
2018-02-16T13:17:12.173Z,1024.79
2018-02-16T13:18:21.134Z,1024.8
2018-02-16T13:19:30.096Z,1024.79
2018-02-16T13:20:39.040Z,1024.77
2018-02-16T13:21:47.731Z,1024.77
2018-02-16T13:22:56.951Z,1024.78
2018-02-16T13:24:05.636Z,1024.79
2018-02-16T13:25:14.321Z,1024.84
2018-02-16T13:26:23.280Z,1024.83
2018-02-16T13:27:32.234Z,1024.84
2018-02-16T13:28:41.265Z,1024.91
2018-02-16T13:29:49.951Z,1024.87
2018-02-16T13:30:58.949Z,1024.89
2018-02-16T13:32:07.905Z,1024.84
2018-02-16T13:33:16.858Z,1024.91
2018-02-16T13:34:25.812Z,1024.95
2018-02-16T13:35:34.499Z,1024.93
2018-02-16T13:36:43.189Z,1024.98
2018-02-16T13:37:52.144Z,1025
2018-02-16T13:39:00.830Z,1025.02
2018-02-16T13:40:09.789Z,1025.02
2018-02-16T13:41:18.475Z,1024.97
2018-02-16T13:42:27.432Z,1024.98
2018-02-16T13:43:36.386Z,1025.03
2018-02-16T13:44:45.342Z,1025.01
2018-02-16T13:45:54.292Z,1025.07
2018-02-16T13:47:02.981Z,1025.06
2018-02-16T13:48:11.931Z,1025.06
2018-02-16T13:49:20.884Z,1025.12
2018-02-16T13:50:29.573Z,1025.08
2018-02-16T13:51:38.262Z,1025.09
2018-02-16T13:52:46.954Z,1025.09
2018-02-16T13:53:56.182Z,1025.06
2018-02-16T13:55:05.401Z,1025.11
2018-02-16T13:56:14.086Z,1025.07
2018-02-16T13:57:22.773Z,1025.11